Wilson Lisbon — 5BNU3 — position and weather

sailwx.info

Track history (hours):
 
Tides and Currents Weather Stations Pressure Air Temp Water Temp Dewpoint Dewpoint Depression Visibility Wind Speed Wind Dir Waves Ship Positions

Wilson Lisbon

Last reported at 2015-Mar-16 13:31 UTC. Time now 2015-Mar-29 04:24 UTC.
Position N 55°55' W 006°54'.
Warning: this ship's position is 12 days out of date.

Length 90 m; draft 5.8 m.

Type: Ship. MMSI: 212376000.

Date/timePositionNaut miles runAvg speedWind from/ knotsBaromVisibWave heightAir tempDewpointWater temp
2015-Mar-16 13:31N 55°55' W 006°54'7 7.5
2015-Mar-16 12:33N 55°49' W 006°46'8 7.5
2015-Mar-16 11:33N 55°43' W 006°39'7 7.0
2015-Mar-16 10:33N 55°37' W 006°31'7 6.5
2015-Mar-16 09:33N 55°32' W 006°24'6 6.3
2015-Mar-16 08:33N 55°28' W 006°16'7 7.2
2015-Mar-16 07:33N 55°24' W 006°05'8 7.4
2015-Mar-16 06:32N 55°19' W 005°55'7 7.6
2015-Mar-16 05:33N 55°13' W 005°48'16 7.6
2015-Mar-16 03:29N 54°60' W 005°32'7 7.8
2015-Mar-16 02:34N 54°53' W 005°28'8 7.8
2015-Mar-16 01:34N 54°46' W 005°24'8 8.2
2015-Mar-16 00:33N 54°38' W 005°20'9 8.4
2015-Mar-15 23:32N 54°29' W 005°16'8 8.4
2015-Mar-15 22:33N 54°21' W 005°14'8 8.5
2015-Mar-15 21:33N 54°13' W 005°14'  
2015-Mar-10 17:31N 39°32' W 010°31'7 7.4
2015-Mar-10 16:32N 39°24' W 010°31'22 7.3
2015-Mar-10 13:33N 39°03' W 010°32'14 7.1
2015-Mar-10 11:33N 38°48' W 010°32'7 6.9
2015-Mar-10 10:33N 38°42' W 010°32'10 7.0
2015-Mar-10 09:10N 38°32' W 010°32'4 6.8
2015-Mar-10 08:33N 38°28' W 010°32'14 7.0
2015-Mar-10 06:32N 38°14' W 010°27'7 7.2
2015-Mar-10 05:32N 38°07' W 010°25'7 7.1
2015-Mar-10 04:32N 38°00' W 010°22'7 6.8
2015-Mar-10 03:33N 37°54' W 010°19'7 6.9
2015-Mar-10 02:33N 37°47' W 010°17'7 6.9
2015-Mar-10 01:32N 37°41' W 010°14'7 7.0
2015-Mar-10 00:33N 37°34' W 010°12'7 7.1
2015-Mar-09 23:33N 37°27' W 010°09'7 7.0
2015-Mar-09 22:33N 37°21' W 010°07'7 7.0
2015-Mar-09 21:32N 37°14' W 010°05'7 7.3
2015-Mar-09 20:33N 37°07' W 010°02'7 7.2
2015-Mar-09 19:33N 37°00' W 009°59'7 7.2
2015-Mar-09 18:33N 36°53' W 009°56'7 7.2
2015-Mar-09 17:33N 36°47' W 009°52'7 7.2
2015-Mar-09 16:33N 36°40' W 009°49'7 7.0
2015-Mar-09 15:33N 36°35' W 009°43'7 7.3
2015-Mar-09 14:33N 36°30' W 009°37'7 7.5
2015-Mar-09 13:33N 36°24' W 009°31'7 7.2
2015-Mar-09 12:33N 36°20' W 009°23'7 7.4
2015-Mar-09 11:33N 36°18' W 009°14'7 7.3
2015-Mar-09 10:33N 36°15' W 009°06'7 7.4
2015-Mar-09 09:33N 36°13' W 008°57'8 7.6
2015-Mar-09 08:33N 36°12' W 008°48'8 7.6
2015-Mar-09 07:33N 36°11' W 008°39'8 7.6
2015-Mar-09 06:33N 36°10' W 008°29'16 7.8
2015-Mar-09 04:33N 36°08' W 008°10'8 8.0
2015-Mar-09 03:33N 36°07' W 007°60'8 8.1
2015-Mar-09 02:33N 36°07' W 007°50'8 8.1
2015-Mar-09 01:33N 36°06' W 007°40'99 8.0
2015-Mar-08 13:09N 35°58' W 005°38'5 7.8
2015-Mar-08 12:32N 35°59' W 005°32'8 7.8
2015-Mar-08 11:33N 36°01' W 005°23'7 7.1
2015-Mar-08 10:33N 36°02' W 005°15'214 7.9
2015-Mar-07 07:31N 37°14' W 001°03'8 8.6
2015-Mar-07 06:33N 37°19' W 000°55'9 8.7
2015-Mar-07 05:33N 37°25' W 000°47'9 9.0
2015-Mar-07 04:33N 37°31' W 000°39'9 8.9
2015-Mar-07 03:33N 37°37' W 000°30'9 8.7
2015-Mar-07 02:33N 37°42' W 000°22'12 8.5
2015-Mar-07 01:06N 37°50' W 000°09'16 8.2
2015-Mar-06 23:06N 38°01' E 000°07'73 8.2
2015-Mar-06 14:07N 38°47' E 001°19'  
Track history (hours):
 
Tides and Currents Weather Stations Pressure Air Temp Water Temp Dewpoint Dewpoint Depression Visibility Wind Speed Wind Dir Waves Ship Positions

Wilson Lisbon

Last reported at 2015-Mar-16 13:31 UTC. Time now 2015-Mar-29 04:24 UTC.
Position N 55°55' W 006°54'.
Warning: this ship's position is 12 days out of date.

Length 90 m; draft 5.8 m.

Type: Ship. MMSI: 212376000.

Date/timePositionNaut miles runAvg speedWind from/ knotsBaromVisibWave heightAir tempDewpointWater temp
2015-Mar-16 13:31N 55°55' W 006°54'7 7.5
2015-Mar-16 12:33N 55°49' W 006°46'8 7.5
2015-Mar-16 11:33N 55°43' W 006°39'7 7.0
2015-Mar-16 10:33N 55°37' W 006°31'7 6.5
2015-Mar-16 09:33N 55°32' W 006°24'6 6.3
2015-Mar-16 08:33N 55°28' W 006°16'7 7.2
2015-Mar-16 07:33N 55°24' W 006°05'8 7.4
2015-Mar-16 06:32N 55°19' W 005°55'7 7.6
2015-Mar-16 05:33N 55°13' W 005°48'16 7.6
2015-Mar-16 03:29N 54°60' W 005°32'7 7.8
2015-Mar-16 02:34N 54°53' W 005°28'8 7.8
2015-Mar-16 01:34N 54°46' W 005°24'8 8.2
2015-Mar-16 00:33N 54°38' W 005°20'9 8.4
2015-Mar-15 23:32N 54°29' W 005°16'8 8.4
2015-Mar-15 22:33N 54°21' W 005°14'8 8.5
2015-Mar-15 21:33N 54°13' W 005°14'  
2015-Mar-10 17:31N 39°32' W 010°31'7 7.4
2015-Mar-10 16:32N 39°24' W 010°31'22 7.3
2015-Mar-10 13:33N 39°03' W 010°32'14 7.1
2015-Mar-10 11:33N 38°48' W 010°32'7 6.9
2015-Mar-10 10:33N 38°42' W 010°32'10 7.0
2015-Mar-10 09:10N 38°32' W 010°32'4 6.8
2015-Mar-10 08:33N 38°28' W 010°32'14 7.0
2015-Mar-10 06:32N 38°14' W 010°27'7 7.2
2015-Mar-10 05:32N 38°07' W 010°25'7 7.1
2015-Mar-10 04:32N 38°00' W 010°22'7 6.8
2015-Mar-10 03:33N 37°54' W 010°19'7 6.9
2015-Mar-10 02:33N 37°47' W 010°17'7 6.9
2015-Mar-10 01:32N 37°41' W 010°14'7 7.0
2015-Mar-10 00:33N 37°34' W 010°12'7 7.1
2015-Mar-09 23:33N 37°27' W 010°09'7 7.0
2015-Mar-09 22:33N 37°21' W 010°07'7 7.0
2015-Mar-09 21:32N 37°14' W 010°05'7 7.3
2015-Mar-09 20:33N 37°07' W 010°02'7 7.2
2015-Mar-09 19:33N 37°00' W 009°59'7 7.2
2015-Mar-09 18:33N 36°53' W 009°56'7 7.2
2015-Mar-09 17:33N 36°47' W 009°52'7 7.2
2015-Mar-09 16:33N 36°40' W 009°49'7 7.0
2015-Mar-09 15:33N 36°35' W 009°43'7 7.3
2015-Mar-09 14:33N 36°30' W 009°37'7 7.5
2015-Mar-09 13:33N 36°24' W 009°31'7 7.2
2015-Mar-09 12:33N 36°20' W 009°23'7 7.4
2015-Mar-09 11:33N 36°18' W 009°14'7 7.3
2015-Mar-09 10:33N 36°15' W 009°06'7 7.4
2015-Mar-09 09:33N 36°13' W 008°57'8 7.6
2015-Mar-09 08:33N 36°12' W 008°48'8 7.6
2015-Mar-09 07:33N 36°11' W 008°39'8 7.6
2015-Mar-09 06:33N 36°10' W 008°29'16 7.8
2015-Mar-09 04:33N 36°08' W 008°10'8 8.0
2015-Mar-09 03:33N 36°07' W 007°60'8 8.1
2015-Mar-09 02:33N 36°07' W 007°50'8 8.1
2015-Mar-09 01:33N 36°06' W 007°40'99 8.0
2015-Mar-08 13:09N 35°58' W 005°38'5 7.8
2015-Mar-08 12:32N 35°59' W 005°32'8 7.8
2015-Mar-08 11:33N 36°01' W 005°23'7 7.1
2015-Mar-08 10:33N 36°02' W 005°15'214 7.9
2015-Mar-07 07:31N 37°14' W 001°03'8 8.6
2015-Mar-07 06:33N 37°19' W 000°55'9 8.7
2015-Mar-07 05:33N 37°25' W 000°47'9 9.0
2015-Mar-07 04:33N 37°31' W 000°39'9 8.9
2015-Mar-07 03:33N 37°37' W 000°30'9 8.7
2015-Mar-07 02:33N 37°42' W 000°22'12 8.5
2015-Mar-07 01:06N 37°50' W 000°09'16 8.2
2015-Mar-06 23:06N 38°01' E 000°07'73 8.2
2015-Mar-06 14:07N 38°47' E 001°19'  

Dump ship's entire track history